Bloomington, Nebraska
Current Conditions -  °F | °C
As of 8:15 PM on Thursday 20 Nov 2014 (Local Time) from KHDE Reporting Station
Clear Clear  
Wind Chill: 15°   Ceiling: Unl
Heat Index: 24°   Visibility: 10mi
Dew Point: 16°   Wind: 7mph
Humidity: 72%   Direction: 130°SE
Pressure: 30.1"   Gusts: NA
Location:  40.09°N, 99.04°W
Report Text: KHDE 210215Z AUTO 13006KT 10SM CLR M05/M09 A3010 RMK AO2 T10471090
Loading
Personal Weather Stations






























Interactive Weather Map New forecast layout! Learn more

10-Day Weather Forecast

Advertisements
Track Severe Weather on mobile